createdAt,value
2024-01-15T00:01:01.481Z,7.03
2024-01-15T00:03:28.536Z,3.60
2024-01-15T00:05:55.518Z,2.03
2024-01-15T00:08:22.532Z,2.60
2024-01-15T00:10:49.463Z,3.00
2024-01-15T00:13:16.399Z,3.95
2024-01-15T00:15:43.330Z,4.25
2024-01-15T00:18:10.373Z,4.00
2024-01-15T00:20:37.439Z,4.20
2024-01-15T00:23:04.655Z,3.83
2024-01-15T00:25:31.586Z,4.43
2024-01-15T00:27:58.467Z,3.60
2024-01-15T00:30:25.351Z,3.90
2024-01-15T00:32:52.394Z,6.10
2024-01-15T00:35:19.418Z,4.15
2024-01-15T00:37:46.319Z,5.20
2024-01-15T00:40:13.281Z,4.88
2024-01-15T00:42:40.269Z,8.05
2024-01-15T00:45:09.093Z,8.20
2024-01-15T00:47:36.234Z,5.38
2024-01-15T00:50:03.217Z,3.40
2024-01-15T00:52:30.115Z,2.72
2024-01-15T00:54:57.031Z,2.13
2024-01-15T00:57:23.995Z,2.17
2024-01-15T00:59:50.951Z,2.03
2024-01-15T01:02:17.925Z,1.48
2024-01-15T01:04:44.873Z,1.65
2024-01-15T01:07:11.689Z,1.77
2024-01-15T01:09:38.628Z,1.70
2024-01-15T01:12:06.122Z,1.48
2024-01-15T01:14:33.547Z,1.52
2024-01-15T01:17:00.536Z,1.17
2024-01-15T01:19:27.736Z,1.80
2024-01-15T01:21:54.773Z,1.60
2024-01-15T01:24:21.632Z,1.77
2024-01-15T01:26:48.562Z,1.80
2024-01-15T01:29:15.545Z,1.52
2024-01-15T01:31:46.382Z,2.03
2024-01-15T01:34:16.763Z,1.27
2024-01-15T01:36:44.572Z,1.30
2024-01-15T01:39:11.885Z,1.20
2024-01-15T01:41:40.398Z,1.50
2024-01-15T01:44:08.424Z,1.75
2024-01-15T01:46:41.282Z,1.20
2024-01-15T01:49:10.604Z,0.70
2024-01-15T01:51:40.588Z,3.08
2024-01-15T01:54:10.473Z,2.25
2024-01-15T01:56:38.086Z,1.90
2024-01-15T01:59:07.224Z,2.10
2024-01-15T02:01:34.352Z,1.35
2024-01-15T02:04:01.820Z,1.58
2024-01-15T02:06:29.198Z,1.65
2024-01-15T02:08:56.918Z,1.00
2024-01-15T02:11:24.485Z,1.30
2024-01-15T02:13:51.557Z,1.42
2024-01-15T02:16:18.871Z,1.90
2024-01-15T02:18:47.662Z,0.75
2024-01-15T02:21:15.082Z,0.82
2024-01-15T02:23:42.229Z,0.90
2024-01-15T02:26:10.249Z,0.55
2024-01-15T02:28:37.401Z,0.43
2024-01-15T02:31:04.595Z,0.70
2024-01-15T02:33:31.745Z,0.60
2024-01-15T02:35:58.739Z,0.70
2024-01-15T02:38:25.621Z,0.80
2024-01-15T02:40:52.588Z,0.60
2024-01-15T02:43:20.383Z,0.85
2024-01-15T02:45:50.242Z,0.93
2024-01-15T02:48:17.477Z,1.05
2024-01-15T02:50:44.511Z,0.80
2024-01-15T02:53:11.421Z,1.00
2024-01-15T02:55:38.353Z,0.90
2024-01-15T02:58:05.662Z,0.82
2024-01-15T03:00:32.678Z,1.13
2024-01-15T03:02:59.729Z,1.08
2024-01-15T03:05:26.743Z,0.70
2024-01-15T03:07:53.616Z,0.80
2024-01-15T03:10:20.683Z,1.30
2024-01-15T03:12:47.819Z,1.10
2024-01-15T03:15:14.866Z,0.93
2024-01-15T03:17:43.984Z,0.90
2024-01-15T03:20:12.178Z,1.25
2024-01-15T03:22:39.163Z,1.35
2024-01-15T03:25:07.433Z,3.72
2024-01-15T03:27:34.790Z,4.55
2024-01-15T03:30:01.865Z,4.32
2024-01-15T03:32:28.754Z,5.63
2024-01-15T03:34:55.616Z,4.60
2024-01-15T03:37:22.521Z,3.33
2024-01-15T03:39:49.593Z,2.38
2024-01-15T03:42:17.172Z,2.35
2024-01-15T03:44:44.112Z,1.67
2024-01-15T03:47:10.996Z,2.58
2024-01-15T03:49:38.162Z,2.60
2024-01-15T03:52:05.723Z,1.92
2024-01-15T03:54:32.644Z,3.20
2024-01-15T03:56:59.453Z,4.88
2024-01-15T03:59:27.717Z,9.10
2024-01-15T04:01:54.625Z,5.60
2024-01-15T04:04:21.810Z,4.00
2024-01-15T04:06:48.967Z,1.85
2024-01-15T04:09:16.300Z,2.47
2024-01-15T04:11:43.333Z,1.58
2024-01-15T04:14:10.204Z,1.30
2024-01-15T04:16:38.814Z,2.30
2024-01-15T04:19:06.058Z,2.80
2024-01-15T04:21:33.459Z,3.83
2024-01-15T04:24:00.403Z,3.67
2024-01-15T04:26:27.326Z,2.15
2024-01-15T04:28:54.227Z,3.80
2024-01-15T04:31:25.838Z,2.38
2024-01-15T04:33:53.108Z,3.28
2024-01-15T04:36:20.070Z,4.05
2024-01-15T04:38:46.996Z,5.47
2024-01-15T04:41:15.453Z,5.70
2024-01-15T04:43:42.333Z,4.07
2024-01-15T04:46:09.564Z,4.53
2024-01-15T04:48:38.139Z,5.15
2024-01-15T04:51:07.412Z,4.90
2024-01-15T04:53:36.196Z,3.10
2024-01-15T04:56:03.238Z,2.55
2024-01-15T04:58:30.332Z,2.10
2024-01-15T05:00:57.556Z,1.70
2024-01-15T05:03:24.769Z,2.40
2024-01-15T05:05:51.880Z,1.70
2024-01-15T05:08:18.810Z,1.20
2024-01-15T05:10:46.277Z,2.17
2024-01-15T05:13:13.225Z,2.53
2024-01-15T05:15:40.385Z,1.50
2024-01-15T05:18:08.005Z,2.55
2024-01-15T05:20:35.511Z,2.00
2024-01-15T05:23:02.527Z,2.80
2024-01-15T05:25:29.461Z,3.75
2024-01-15T05:27:56.461Z,3.80
2024-01-15T05:30:23.475Z,2.90
2024-01-15T05:32:50.496Z,3.05
2024-01-15T05:35:17.563Z,4.03
2024-01-15T05:37:46.648Z,3.38
2024-01-15T05:40:14.345Z,4.47
2024-01-15T05:42:42.849Z,3.45
2024-01-15T05:45:10.202Z,3.97
2024-01-15T05:47:37.156Z,3.40
2024-01-15T05:50:04.369Z,2.17
2024-01-15T05:52:31.260Z,2.17
2024-01-15T05:54:58.171Z,3.00
2024-01-15T05:57:25.141Z,2.20
2024-01-15T05:59:52.130Z,2.25
2024-01-15T06:02:19.080Z,2.35
2024-01-15T06:04:46.126Z,1.63
2024-01-15T06:07:13.177Z,1.42
2024-01-15T06:09:40.065Z,2.50
2024-01-15T06:12:09.009Z,3.10
2024-01-15T06:14:35.974Z,2.20
2024-01-15T06:17:03.156Z,1.52
2024-01-15T06:19:30.268Z,1.73
2024-01-15T06:21:57.423Z,1.88
2024-01-15T06:24:24.595Z,2.80
2024-01-15T06:26:51.584Z,3.92
2024-01-15T06:29:18.887Z,2.35
2024-01-15T06:31:45.821Z,2.10
2024-01-15T06:34:13.272Z,1.70
2024-01-15T06:36:40.453Z,1.90
2024-01-15T06:39:07.567Z,3.70
2024-01-15T06:41:34.654Z,2.60
2024-01-15T06:44:01.562Z,2.75
2024-01-15T06:46:28.469Z,3.50
2024-01-15T06:48:55.705Z,3.03
2024-01-15T06:51:22.653Z,2.65
2024-01-15T06:53:49.513Z,2.13
2024-01-15T06:56:16.524Z,1.60
2024-01-15T06:58:43.359Z,0.85
2024-01-15T07:01:10.378Z,1.65
2024-01-15T07:03:37.502Z,1.02
2024-01-15T07:06:05.022Z,1.17
2024-01-15T07:08:31.850Z,3.00
2024-01-15T07:10:58.812Z,1.73
2024-01-15T07:13:25.796Z,1.63
2024-01-15T07:15:52.892Z,1.17
2024-01-15T07:18:19.937Z,1.90
2024-01-15T07:20:46.855Z,2.65
2024-01-15T07:23:13.821Z,3.00
2024-01-15T07:25:40.679Z,1.30
2024-01-15T07:28:07.665Z,1.00
2024-01-15T07:30:34.857Z,1.20
2024-01-15T07:33:02.261Z,1.20
2024-01-15T07:35:29.254Z,1.33
2024-01-15T07:37:56.128Z,1.67
2024-01-15T07:40:23.233Z,1.77
2024-01-15T07:42:50.145Z,2.83
2024-01-15T07:45:17.264Z,3.33
2024-01-15T07:47:45.527Z,2.35
2024-01-15T07:50:12.737Z,1.73
2024-01-15T07:52:42.934Z,1.70
2024-01-15T07:55:09.952Z,1.90
2024-01-15T07:57:39.697Z,1.60
2024-01-15T08:00:07.684Z,1.70
2024-01-15T08:02:37.444Z,1.77
2024-01-15T08:05:05.485Z,1.67
2024-01-15T08:07:32.483Z,1.80
2024-01-15T08:09:59.718Z,2.90
2024-01-15T08:12:27.017Z,1.98
2024-01-15T08:14:54.129Z,2.42
2024-01-15T08:17:20.970Z,2.50
2024-01-15T08:19:47.957Z,2.33
2024-01-15T08:22:15.298Z,1.88
2024-01-15T08:24:42.244Z,2.42
2024-01-15T08:27:09.278Z,1.80
2024-01-15T08:29:36.188Z,1.60
2024-01-15T08:32:03.324Z,1.92
2024-01-15T08:34:32.164Z,1.73
2024-01-15T08:36:59.442Z,1.60
2024-01-15T08:39:26.458Z,1.70
2024-01-15T08:41:53.400Z,2.17
2024-01-15T08:44:20.290Z,2.20
2024-01-15T08:46:47.252Z,1.77
2024-01-15T08:49:14.270Z,3.47
2024-01-15T08:51:42.254Z,5.65
2024-01-15T08:54:09.532Z,5.10
2024-01-15T08:56:36.640Z,3.05
2024-01-15T08:59:03.553Z,2.00
2024-01-15T09:01:31.036Z,2.08
2024-01-15T09:03:58.012Z,2.47
2024-01-15T09:06:25.040Z,1.42
2024-01-15T09:08:51.995Z,1.27
2024-01-15T09:11:18.883Z,1.02
2024-01-15T09:13:45.761Z,1.15
2024-01-15T09:16:12.708Z,1.00
2024-01-15T09:18:39.784Z,1.05
2024-01-15T09:21:06.679Z,1.52
2024-01-15T09:23:33.567Z,1.10
2024-01-15T09:26:00.471Z,1.15
2024-01-15T09:28:27.419Z,1.00
2024-01-15T09:30:54.432Z,1.30
2024-01-15T09:33:21.470Z,1.48
2024-01-15T09:35:48.389Z,1.02
2024-01-15T09:38:15.332Z,1.10
2024-01-15T09:40:46.954Z,1.42
2024-01-15T09:43:15.823Z,1.30
2024-01-15T09:45:44.576Z,1.58
2024-01-15T09:48:11.757Z,1.75
2024-01-15T09:50:38.781Z,1.48
2024-01-15T09:53:07.403Z,2.17
2024-01-15T09:55:34.473Z,1.70
2024-01-15T09:58:03.169Z,1.77
2024-01-15T10:00:34.076Z,2.58
2024-01-15T10:03:03.935Z,1.77
2024-01-15T10:05:31.060Z,3.95
2024-01-15T10:07:58.977Z,3.03
2024-01-15T10:10:25.846Z,2.65
2024-01-15T10:12:56.273Z,3.35
2024-01-15T10:15:27.722Z,4.93
2024-01-15T10:17:56.025Z,9.10
2024-01-15T10:20:25.769Z,4.80
2024-01-15T10:22:52.663Z,7.70
2024-01-15T10:25:25.705Z,5.43
2024-01-15T10:28:05.866Z,3.78
2024-01-15T10:30:36.110Z,1.90
2024-01-15T10:33:06.400Z,1.75
2024-01-15T10:35:35.984Z,1.40
2024-01-15T10:38:04.153Z,1.90
2024-01-15T10:40:32.817Z,1.80
2024-01-15T10:42:59.840Z,1.98
2024-01-15T10:45:27.010Z,1.67
2024-01-15T10:47:56.105Z,2.65
2024-01-15T10:50:23.265Z,2.13
2024-01-15T10:52:51.073Z,1.75
2024-01-15T10:55:20.111Z,1.30
2024-01-15T10:57:50.841Z,2.88
2024-01-15T11:00:18.969Z,3.53
2024-01-15T11:02:46.494Z,1.73
2024-01-15T11:05:13.448Z,1.63
2024-01-15T11:07:42.576Z,1.25
2024-01-15T11:10:41.192Z,3.05
2024-01-15T11:13:36.870Z,1.50
2024-01-15T11:16:09.467Z,1.30
2024-01-15T11:18:43.906Z,0.90
2024-01-15T11:21:17.360Z,0.70
2024-01-15T11:23:58.264Z,0.90
2024-01-15T11:26:44.398Z,0.93
2024-01-15T11:29:31.001Z,1.65
2024-01-15T11:32:09.559Z,0.80
2024-01-15T11:35:04.254Z,1.10
2024-01-15T11:37:51.469Z,1.25
2024-01-15T11:40:43.502Z,1.70
2024-01-15T11:43:10.730Z,1.30
2024-01-15T11:45:38.876Z,1.30
2024-01-15T11:48:20.648Z,1.00
2024-01-15T11:50:51.557Z,1.17
2024-01-15T11:53:53.557Z,1.00
2024-01-15T11:56:24.404Z,1.00
2024-01-15T11:58:52.569Z,1.73
2024-01-15T12:01:20.878Z,1.58
2024-01-15T12:03:48.919Z,1.42
2024-01-15T12:06:15.953Z,1.52
2024-01-15T12:08:42.880Z,1.67
2024-01-15T12:11:16.912Z,2.30
2024-01-15T12:13:43.891Z,2.20
2024-01-15T12:16:11.456Z,2.35
2024-01-15T12:18:38.531Z,2.88
2024-01-15T12:21:05.787Z,2.60
2024-01-15T12:23:32.896Z,3.38
2024-01-15T12:25:59.935Z,3.13
2024-01-15T12:28:29.481Z,2.65
2024-01-15T12:30:57.114Z,2.33
2024-01-15T12:33:24.149Z,3.25
2024-01-15T12:35:54.455Z,2.40
2024-01-15T12:38:21.820Z,2.35
2024-01-15T12:40:49.748Z,1.77
2024-01-15T12:43:16.712Z,1.23
2024-01-15T12:45:44.359Z,1.30
2024-01-15T12:48:11.706Z,1.05
2024-01-15T12:50:38.686Z,0.90
2024-01-15T12:53:05.816Z,1.00
2024-01-15T12:55:32.716Z,3.35
2024-01-15T12:57:59.730Z,1.30
2024-01-15T13:00:27.385Z,5.32
2024-01-15T13:02:56.010Z,1.60
2024-01-15T13:05:24.267Z,5.72
2024-01-15T13:07:51.627Z,3.38
2024-01-15T13:10:18.512Z,1.50
2024-01-15T13:12:46.066Z,2.38
2024-01-15T13:15:14.635Z,1.55
2024-01-15T13:17:43.346Z,2.30
2024-01-15T13:20:12.350Z,1.55
2024-01-15T13:22:40.835Z,1.42
2024-01-15T13:25:09.175Z,1.60
2024-01-15T13:27:37.063Z,1.50
2024-01-15T13:30:09.239Z,1.13
2024-01-15T13:32:37.063Z,1.25
2024-01-15T13:35:06.949Z,1.35
2024-01-15T13:37:34.410Z,1.10
2024-01-15T13:40:02.086Z,1.20
2024-01-15T13:42:29.469Z,1.58
2024-01-15T13:44:56.405Z,3.13
2024-01-15T13:47:23.512Z,1.63
2024-01-15T13:49:50.614Z,1.60
2024-01-15T13:52:18.870Z,1.45
2024-01-15T13:54:49.992Z,1.33
2024-01-15T13:57:19.558Z,1.70
2024-01-15T13:59:47.440Z,1.50
2024-01-15T14:02:18.116Z,1.58
2024-01-15T14:04:49.962Z,1.63
2024-01-15T14:07:17.647Z,1.10
2024-01-15T14:09:44.721Z,2.03
2024-01-15T14:12:12.859Z,1.88
2024-01-15T14:14:39.961Z,1.40
2024-01-15T14:17:06.890Z,2.15
2024-01-15T14:19:34.343Z,2.17
2024-01-15T14:22:01.247Z,2.35
2024-01-15T14:24:28.255Z,1.42
2024-01-15T14:26:55.137Z,2.42
2024-01-15T14:29:23.737Z,3.55
2024-01-15T14:31:50.892Z,4.68
2024-01-15T14:34:19.465Z,3.63
2024-01-15T14:36:47.851Z,2.92
2024-01-15T14:39:14.792Z,2.80
2024-01-15T14:41:42.039Z,2.10
2024-01-15T14:44:08.951Z,2.35
2024-01-15T14:46:35.964Z,1.65
2024-01-15T14:49:03.592Z,2.17
2024-01-15T14:51:30.700Z,1.98
2024-01-15T14:53:57.720Z,1.42
2024-01-15T14:56:25.095Z,1.70
2024-01-15T14:58:51.974Z,2.03
2024-01-15T15:01:19.031Z,2.25
2024-01-15T15:03:46.148Z,2.15
2024-01-15T15:06:14.054Z,1.75
2024-01-15T15:08:41.921Z,1.70
2024-01-15T15:11:09.598Z,1.70
2024-01-15T15:13:44.414Z,1.80
2024-01-15T15:16:14.598Z,1.75
2024-01-15T15:18:47.410Z,1.90
2024-01-15T15:21:15.124Z,2.35
2024-01-15T15:23:42.205Z,1.75
2024-01-15T15:26:10.117Z,1.70
2024-01-15T15:28:37.938Z,1.90
2024-01-15T15:31:09.462Z,1.88
2024-01-15T15:33:36.950Z,1.60
2024-01-15T15:36:06.220Z,1.40
2024-01-15T15:38:34.048Z,1.50
2024-01-15T15:41:02.387Z,1.67
2024-01-15T15:43:30.393Z,1.10
2024-01-15T15:46:00.979Z,1.70
2024-01-15T15:48:28.165Z,2.40
2024-01-15T15:50:56.720Z,3.03
2024-01-15T15:53:23.857Z,1.67
2024-01-15T15:55:50.705Z,1.90
2024-01-15T15:58:17.957Z,1.58
2024-01-15T16:00:45.112Z,2.30
2024-01-15T16:03:12.208Z,2.20
2024-01-15T16:05:45.727Z,1.65
2024-01-15T16:08:19.207Z,1.80
2024-01-15T16:10:49.746Z,1.48
2024-01-15T16:13:16.838Z,1.70
2024-01-15T16:15:43.885Z,1.67
2024-01-15T16:23:19.272Z,1.52
2024-01-15T16:23:33.727Z,2.05
2024-01-15T16:24:08.748Z,1.52
2024-01-15T16:26:31.962Z,1.63
2024-01-15T16:29:00.911Z,1.63
2024-01-15T16:31:29.265Z,1.30
2024-01-15T16:34:01.738Z,3.38
2024-01-15T16:36:32.407Z,2.55
2024-01-15T16:38:59.433Z,3.95
2024-01-15T16:41:26.362Z,3.03
2024-01-15T16:43:53.269Z,2.65
2024-01-15T16:46:20.210Z,2.15
2024-01-15T16:48:47.126Z,1.80
2024-01-15T16:51:14.208Z,2.90
2024-01-15T16:53:41.108Z,1.60
2024-01-15T16:56:08.205Z,3.10
2024-01-15T16:58:35.432Z,1.88
2024-01-15T17:01:02.545Z,1.80
2024-01-15T17:03:29.480Z,1.73
2024-01-15T17:05:56.488Z,1.80
2024-01-15T17:08:23.501Z,1.77
2024-01-15T17:10:50.437Z,1.67
2024-01-15T17:13:17.283Z,2.10
2024-01-15T17:15:44.186Z,2.10
2024-01-15T17:18:14.319Z,1.70
2024-01-15T17:20:45.271Z,2.30
2024-01-15T17:23:12.296Z,1.92
2024-01-15T17:25:39.230Z,2.10
2024-01-15T17:28:06.340Z,2.30
2024-01-15T17:30:33.334Z,2.22
2024-01-15T17:33:02.544Z,3.42
2024-01-15T17:35:29.606Z,2.65
2024-01-15T17:37:56.609Z,2.75
2024-01-15T17:40:23.643Z,3.72
2024-01-15T17:42:51.005Z,3.30
2024-01-15T17:45:20.611Z,2.83
2024-01-15T17:47:50.343Z,3.22
2024-01-15T17:50:20.015Z,3.17
2024-01-15T17:52:47.327Z,2.50
2024-01-15T17:55:14.441Z,4.60
2024-01-15T17:57:41.366Z,2.60
2024-01-15T18:00:08.945Z,2.60
2024-01-15T18:02:36.126Z,2.25
2024-01-15T18:05:03.516Z,2.60
2024-01-15T18:07:30.442Z,2.67
2024-01-15T18:09:57.278Z,2.15
2024-01-15T18:12:26.196Z,2.22
2024-01-15T18:14:54.664Z,2.10
2024-01-15T18:17:24.696Z,2.30
2024-01-15T18:19:51.725Z,1.88
2024-01-15T18:22:19.520Z,2.00
2024-01-15T18:24:47.257Z,1.80
2024-01-15T18:27:14.189Z,2.35
2024-01-15T18:29:41.090Z,2.38
2024-01-15T18:32:08.201Z,2.10
2024-01-15T18:34:35.350Z,2.90
2024-01-15T18:37:02.426Z,3.65
2024-01-15T18:39:29.665Z,3.30
2024-01-15T18:41:57.478Z,2.75
2024-01-15T18:44:24.548Z,3.10
2024-01-15T18:46:51.530Z,8.98
2024-01-15T18:49:19.687Z,5.78
2024-01-15T18:51:49.223Z,2.72
2024-01-15T18:54:17.348Z,3.10
2024-01-15T18:56:45.574Z,2.20
2024-01-15T18:59:12.806Z,2.90
2024-01-15T19:01:40.177Z,3.22
2024-01-15T19:04:08.110Z,3.00
2024-01-15T19:06:35.144Z,2.60
2024-01-15T19:09:02.021Z,2.50
2024-01-15T19:11:28.902Z,2.78
2024-01-15T19:13:56.083Z,3.13
2024-01-15T19:16:23.374Z,6.38
2024-01-15T19:18:54.599Z,19.35
2024-01-15T19:21:21.665Z,7.30
2024-01-15T19:23:48.750Z,4.22
2024-01-15T19:26:23.146Z,2.95
2024-01-15T19:28:50.266Z,3.40
2024-01-15T19:31:18.240Z,5.90
2024-01-15T19:33:45.334Z,5.13
2024-01-15T19:36:26.200Z,3.80
2024-01-15T19:38:56.540Z,2.00
2024-01-15T19:41:23.608Z,2.95
2024-01-15T19:43:50.636Z,3.08
2024-01-15T19:46:17.937Z,2.38
2024-01-15T19:48:45.059Z,1.95
2024-01-15T19:51:15.459Z,2.10
2024-01-15T19:53:44.085Z,2.00
2024-01-15T19:56:11.081Z,2.22
2024-01-15T19:58:38.097Z,2.90
2024-01-15T20:01:06.067Z,3.90
2024-01-15T20:03:33.471Z,2.78
2024-01-15T20:06:00.609Z,2.90
2024-01-15T20:08:27.666Z,3.13
2024-01-15T20:10:56.947Z,3.33
2024-01-15T20:13:23.834Z,3.38
2024-01-15T20:15:51.126Z,3.45
2024-01-15T20:18:19.016Z,3.42
2024-01-15T20:20:46.156Z,4.07
2024-01-15T20:23:13.149Z,3.00
2024-01-15T20:25:40.042Z,3.55
2024-01-15T20:28:07.858Z,7.25
2024-01-15T20:30:34.944Z,5.35
2024-01-15T20:33:02.294Z,6.25
2024-01-15T20:35:29.960Z,5.55
2024-01-15T20:37:58.370Z,5.25
2024-01-15T20:40:25.425Z,5.75
2024-01-15T20:42:52.276Z,3.67
2024-01-15T20:45:19.485Z,3.28
2024-01-15T20:47:46.441Z,2.00
2024-01-15T20:50:13.816Z,3.17
2024-01-15T20:52:41.016Z,5.30
2024-01-15T20:55:09.597Z,5.68
2024-01-15T20:57:36.576Z,5.15
2024-01-15T21:00:03.819Z,3.88
2024-01-15T21:02:30.823Z,3.00
2024-01-15T21:04:57.707Z,3.30
2024-01-15T21:07:24.528Z,2.90
2024-01-15T21:09:51.403Z,2.88
2024-01-15T21:12:18.471Z,4.00
2024-01-15T21:14:45.583Z,4.20
2024-01-15T21:17:12.530Z,4.10
2024-01-15T21:19:39.458Z,4.85
2024-01-15T21:22:06.383Z,5.20
2024-01-15T21:24:33.290Z,7.50
2024-01-15T21:27:00.200Z,4.60
2024-01-15T21:29:27.194Z,5.00
2024-01-15T21:31:54.794Z,4.95
2024-01-15T21:34:22.348Z,4.97
2024-01-15T21:36:51.049Z,8.05
2024-01-15T21:39:18.657Z,7.80
2024-01-15T21:41:46.046Z,7.15
2024-01-15T21:44:13.597Z,8.93
2024-01-15T21:46:40.606Z,6.18
2024-01-15T21:49:07.677Z,8.23
2024-01-15T21:51:35.924Z,8.65
2024-01-15T21:54:03.092Z,6.93
2024-01-15T21:56:30.203Z,6.13
2024-01-15T21:58:57.123Z,7.53
2024-01-15T22:01:24.829Z,5.95
2024-01-15T22:03:53.604Z,6.88
2024-01-15T22:06:20.833Z,19.20
2024-01-15T22:08:48.806Z,10.35
2024-01-15T22:11:16.117Z,5.32
2024-01-15T22:13:43.104Z,4.50
2024-01-15T22:16:11.213Z,3.90
2024-01-15T22:18:38.391Z,3.70
2024-01-15T22:21:06.228Z,4.93
2024-01-15T22:23:33.346Z,4.68
2024-01-15T22:26:00.457Z,3.55
2024-01-15T22:28:28.157Z,2.95
2024-01-15T22:30:54.990Z,2.38
2024-01-15T22:33:21.985Z,2.63
2024-01-15T22:35:49.268Z,1.60
2024-01-15T22:38:16.403Z,1.83
2024-01-15T22:40:43.288Z,2.08
2024-01-15T22:43:10.296Z,1.70
2024-01-15T22:45:37.667Z,2.50
2024-01-15T22:48:05.132Z,1.80
2024-01-15T22:50:32.237Z,2.05
2024-01-15T22:52:59.203Z,1.98
2024-01-15T22:55:26.211Z,2.10
2024-01-15T22:57:53.256Z,3.05
2024-01-15T23:00:20.646Z,2.65
2024-01-15T23:02:49.157Z,2.47
2024-01-15T23:05:17.202Z,1.80
2024-01-15T23:07:44.412Z,1.60
2024-01-15T23:10:11.818Z,1.73
2024-01-15T23:12:39.340Z,1.60
2024-01-15T23:15:06.558Z,1.85
2024-01-15T23:17:33.907Z,1.85
2024-01-15T23:20:01.866Z,1.80
2024-01-15T23:22:28.858Z,1.10
2024-01-15T23:24:55.701Z,1.42
2024-01-15T23:27:22.640Z,1.55
2024-01-15T23:29:49.859Z,1.50
2024-01-15T23:32:16.822Z,1.60
2024-01-15T23:34:43.746Z,1.30
2024-01-15T23:37:10.635Z,1.33
2024-01-15T23:39:37.512Z,1.85
2024-01-15T23:42:04.674Z,2.85
2024-01-15T23:44:31.708Z,1.92
2024-01-15T23:46:58.803Z,1.60
2024-01-15T23:49:25.767Z,1.60
2024-01-15T23:51:52.737Z,1.90
2024-01-15T23:54:21.773Z,1.90
2024-01-15T23:56:49.143Z,2.42
2024-01-15T23:59:16.297Z,2.20
